< < Back
Terminal Aerodrome Forecast


Current Version              Previous Versions:   1  2  3  4  5  6  7  8  9  

Terminal Aerodrome Forecast

338
FTUS42 KMLB 090542
TAFDAB
TAF
KDAB 090542Z 0906/1006 28016G24KT P6SM BKN050
      TEMPO 0906/0907 -SHRA
     FM091700 27020G30KT P6SM BKN050
     FM100000 27014G20KT P6SM SCT050=

Latest METAR

422
SAUS80 KWBC 091800
MTRDAB
METAR KDAB 091753Z 26021G31KT 10SM SCT065 14/M01 A2996 RMK AO2 PK WND
27031/1752 SLP146 T01391006 10144 20078 58021 $


USA.gov is the U.S. government's official web portal to all federal, state and local government web resources and services.